Wetterdaten: aktuell Montag, 24.07.2017 10:35
Datum Zeit Temp. A. Feuchte A. Luftdruck Regen Wind Richtung Richtung Taupunkt Windchill Windben
24.07.2017 10:35 17,6 C 85 % 1008,4 hPa 0,0 l/m 11,5 km/h (2 Bft) SO 138 15,0 C 17,6 C 19,3 km/h (3 Bft)
24.07.2017 10:34 17,6 C 85 % 1008,4 hPa 0,0 l/m 6,4 km/h (2 Bft) SO 144 15,0 C 17,6 C 9,7 km/h (2 Bft)
24.07.2017 10:33 17,5 C 86 % 1008,4 hPa 0,0 l/m 11,8 km/h (2 Bft) SO 132 15,1 C 17,5 C 16,1 km/h (3 Bft)
24.07.2017 10:32 17,5 C 85 % 1008,4 hPa 0,0 l/m 14,9 km/h (3 Bft) SO 146 14,9 C 17,5 C 19,3 km/h (3 Bft)
24.07.2017 10:31 17,5 C 86 % 1008,4 hPa 0,0 l/m 12,3 km/h (2 Bft) S-SO 148 15,1 C 17,5 C 20,9 km/h (4 Bft)
24.07.2017 10:30 17,4 C 86 % 1008,4 hPa 0,0 l/m 10,9 km/h (2 Bft) SO 140 15,0 C 17,4 C 14,5 km/h (3 Bft)
24.07.2017 10:29 17,4 C 85 % 1008,4 hPa 0,0 l/m 11,8 km/h (2 Bft) S-SO 149 14,8 C 17,4 C 14,5 km/h (3 Bft)
24.07.2017 10:28 17,4 C 86 % 1008,4 hPa 0,0 l/m 11,7 km/h (2 Bft) SO 141 15,0 C 17,4 C 16,1 km/h (3 Bft)
24.07.2017 10:27 17,4 C 86 % 1008,4 hPa 0,0 l/m 20,0 km/h (4 Bft) S-SO 149 15,0 C 17,4 C 27,4 km/h (5 Bft)
24.07.2017 10:26 17,4 C 86 % 1008,4 hPa 0,0 l/m 12,5 km/h (2 Bft) SO 136 15,0 C 17,4 C 20,9 km/h (4 Bft)
24.07.2017 10:25 17,3 C 86 % 1008,4 hPa 0,0 l/m 7,8 km/h (2 Bft) SO 126 14,9 C 17,3 C 11,3 km/h (2 Bft)
24.07.2017 10:24 17,3 C 86 % 1008,4 hPa 0,0 l/m 4,8 km/h (1 Bft) S 182 14,9 C 17,3 C 11,3 km/h (2 Bft)
24.07.2017 10:23 17,3 C 87 % 1008,4 hPa 0,0 l/m 5,7 km/h (2 Bft) S-SO 153 15,1 C 17,3 C 8,0 km/h (2 Bft)
24.07.2017 10:22 17,3 C 87 % 1008,4 hPa 0,0 l/m 5,3 km/h (1 Bft) S-SO 150 15,1 C 17,3 C 12,9 km/h (3 Bft)
24.07.2017 10:21 17,2 C 87 % 1008,4 hPa 0,0 l/m 7,2 km/h (2 Bft) S-SO 157 15,0 C 17,2 C 9,7 km/h (2 Bft)
24.07.2017 10:20 17,2 C 87 % 1008,4 hPa 0,0 l/m 6,9 km/h (2 Bft) S 172 15,0 C 17,2 C 9,7 km/h (2 Bft)
24.07.2017 10:19 17,2 C 87 % 1008,4 hPa 0,0 l/m 8,7 km/h (2 Bft) S 185 15,0 C 17,2 C 14,5 km/h (3 Bft)
24.07.2017 10:18 17,2 C 87 % 1008,4 hPa 0,0 l/m 12,7 km/h (3 Bft) S-SO 161 15,0 C 17,2 C 16,1 km/h (3 Bft)
24.07.2017 10:16 17,2 C 87 % 1008,4 hPa 0,0 l/m 8,1 km/h (2 Bft) S-SO 158 15,0 C 17,2 C 16,1 km/h (3 Bft)
24.07.2017 10:15 17,2 C 87 % 1008,3 hPa 0,0 l/m 6,4 km/h (2 Bft) SO 146 15,0 C 17,2 C 12,9 km/h (3 Bft)
24.07.2017 10:14 17,2 C 87 % 1008,3 hPa 0,0 l/m 12,3 km/h (2 Bft) SO 141 15,0 C 17,2 C 16,1 km/h (3 Bft)
24.07.2017 10:13 17,2 C 87 % 1008,3 hPa 0,0 l/m 9,9 km/h (2 Bft) S 173 15,0 C 17,2 C 14,5 km/h (3 Bft)
24.07.2017 10:12 17,2 C 87 % 1008,3 hPa 0,0 l/m 6,9 km/h (2 Bft) S 169 15,0 C 17,2 C 12,9 km/h (3 Bft)
24.07.2017 10:11 17,2 C 87 % 1008,3 hPa 0,0 l/m 9,3 km/h (2 Bft) S-SO 167 15,0 C 17,2 C 11,3 km/h (2 Bft)
24.07.2017 10:10 17,2 C 87 % 1008,3 hPa 0,0 l/m 8,8 km/h (2 Bft) S-SO 147 15,0 C 17,2 C 11,3 km/h (2 Bft)
24.07.2017 10:09 17,2 C 87 % 1008,3 hPa 0,0 l/m 13,3 km/h (3 Bft) S-SO 162 15,0 C 17,2 C 17,7 km/h (3 Bft)
24.07.2017 10:08 17,2 C 87 % 1008,3 hPa 0,0 l/m 13,8 km/h (3 Bft) S-SO 161 15,0 C 17,2 C 22,5 km/h (4 Bft)
24.07.2017 10:07 17,2 C 88 % 1008,4 hPa 0,0 l/m 16,5 km/h (3 Bft) SO 142 15,2 C 17,2 C 20,9 km/h (4 Bft)
24.07.2017 10:06 17,2 C 88 % 1008,3 hPa 0,0 l/m 11,3 km/h (2 Bft) S-SO 161 15,2 C 17,2 C 19,3 km/h (3 Bft)
24.07.2017 10:05 17,1 C 87 % 1008,3 hPa 0,0 l/m 10,7 km/h (2 Bft) O-SO 118 14,9 C 17,1 C 12,9 km/h (3 Bft)
24.07.2017 10:04 17,1 C 87 % 1008,2 hPa 0,0 l/m 10,1 km/h (2 Bft) S-SO 150 14,9 C 17,1 C 14,5 km/h (3 Bft)
24.07.2017 10:03 17,1 C 87 % 1008,2 hPa 0,0 l/m 11,4 km/h (2 Bft) S-SO 164 14,9 C 17,1 C 16,1 km/h (3 Bft)
24.07.2017 10:02 17,1 C 87 % 1008,3 hPa 0,0 l/m 13,5 km/h (3 Bft) S-SO 153 14,9 C 17,1 C 17,7 km/h (3 Bft)
24.07.2017 10:01 17,1 C 87 % 1008,2 hPa 0,0 l/m 11,3 km/h (2 Bft) SO 142 14,9 C 17,1 C 14,5 km/h (3 Bft)
24.07.2017 10:00 17,1 C 88 % 1008,3 hPa 0,0 l/m 10,6 km/h (2 Bft) SO 140 15,1 C 17,1 C 14,5 km/h (3 Bft)
24.07.2017 09:59 17,1 C 88 % 1008,3 hPa 0,0 l/m 12,5 km/h (2 Bft) S-SO 147 15,1 C 17,1 C 17,7 km/h (3 Bft)
24.07.2017 09:58 17,0 C 88 % 1008,3 hPa 0,0 l/m 12,5 km/h (2 Bft) O-SO 123 15,0 C 17,0 C 16,1 km/h (3 Bft)
24.07.2017 09:57 16,9 C 88 % 1008,3 hPa 0,0 l/m 9,8 km/h (2 Bft) SO 137 14,9 C 16,9 C 11,3 km/h (2 Bft)
24.07.2017 09:56 16,8 C 87 % 1008,3 hPa 0,0 l/m 12,9 km/h (3 Bft) S-SO 148 14,6 C 16,8 C 14,5 km/h (3 Bft)
24.07.2017 09:55 16,8 C 88 % 1008,4 hPa 0,0 l/m 13,5 km/h (3 Bft) S-SO 155 14,8 C 16,8 C 19,3 km/h (3 Bft)
24.07.2017 09:54 16,8 C 88 % 1008,4 hPa 0,0 l/m 12,5 km/h (2 Bft) S-SO 157 14,8 C 16,8 C 17,7 km/h (3 Bft)
24.07.2017 09:53 16,8 C 88 % 1008,4 hPa 0,0 l/m 10,8 km/h (2 Bft) SO 144 14,8 C 16,8 C 12,9 km/h (3 Bft)
24.07.2017 09:52 16,7 C 88 % 1008,3 hPa 0,0 l/m 11,5 km/h (2 Bft) S-SO 150 14,7 C 16,7 C 17,7 km/h (3 Bft)
24.07.2017 09:51 16,7 C 88 % 1008,3 hPa 0,0 l/m 11,8 km/h (2 Bft) SO 138 14,7 C 16,7 C 14,5 km/h (3 Bft)
24.07.2017 09:50 16,7 C 88 % 1008,3 hPa 0,0 l/m 14,7 km/h (3 Bft) SO 136 14,7 C 16,7 C 17,7 km/h (3 Bft)
24.07.2017 09:49 16,7 C 88 % 1008,4 hPa 0,0 l/m 15,1 km/h (3 Bft) S-SO 153 14,7 C 16,7 C 16,1 km/h (3 Bft)
24.07.2017 09:48 16,7 C 88 % 1008,4 hPa 0,0 l/m 17,4 km/h (3 Bft) S-SO 151 14,7 C 16,7 C 22,5 km/h (4 Bft)
24.07.2017 09:47 16,7 C 88 % 1008,5 hPa 0,0 l/m 14,6 km/h (3 Bft) SO 138 14,7 C 16,7 C 19,3 km/h (3 Bft)
24.07.2017 09:46 16,6 C 88 % 1008,5 hPa 0,0 l/m 14,3 km/h (3 Bft) S-SO 163 14,6 C 16,6 C 19,3 km/h (3 Bft)
24.07.2017 09:45 16,6 C 88 % 1008,6 hPa 0,0 l/m 16,4 km/h (3 Bft) S 175 14,6 C 16,6 C 22,5 km/h (4 Bft)
24.07.2017 09:44 16,6 C 88 % 1008,6 hPa 0,0 l/m 12,2 km/h (2 Bft) S-SO 165 14,6 C 16,6 C 19,3 km/h (3 Bft)
_ Min-Zeit 05:16 16:18 10:01 - 13:46 - - 23:56 05:17 13:46
Minimum _ 13,8 C 63 % 1008,2 hPa - 0,0 km/h (0 Bft) - - 11,5 C 13,8 C 0,0 km/h (0 Bft)
_ Max-Zeit 16:23 06:41 12:50 12:34 10:27 - - 11:51 16:23 10:27
Maximum _ 22,6 C 94 % 1016,1 hPa 0,8 l/m 20,0 km/h
S-SO (4 Bft)
- - 17,8 C 22,6 C 27,4 km/h
SO (5 Bft)
Durchschnitt _ 17,5 C 82 % 1013,6 hPa #2,4 l/m 5,2 km/h (1 Bft) SW - 14,3 C 17,5 C 7,5 km/h (2 Bft)
Wetterstation Eggerszell